Impacts TAF Board INFO
FOR SITUATIONAL AWARENESS. NOT TO BE USED FOR FLIGHT PLANNING PURPOSES.
IDs:

KBWI - Baltimore-Washington, MD, US

Issued at 0534 UTC 24 Nov 2017
Updated at 0732 UTC 24 Nov 2017
Potential Impact None Slight Moderate High
Time0654Z 24/08Z 24/09Z 24/10Z 24/11Z 24/12Z 24/13Z 24/14Z 24/15Z 24/16Z 24/17Z 24/18Z 24/19Z 24/20Z>>
Type OBS PRVL PRVL PRVL PRVL PRVL PRVL PRVL PRVL PRVL PRVL PRVL PRVL PRVL
VIS 10 >6 >6 >6 >6 >6 >6 >6 >6 >6 >6 >6 >6 >6
CIG -- -- -- -- -- -- -- -- -- -- -- -- -- --
Cover CLR SKC SKC SKC SKC SKC SKC SKC SKC SKC SKC SKC SKC SKC
FltCat VFR VFR VFR VFR VFR VFR VFR VFR VFR VFR VFR VFR VFR VFR
WX -- -- -- -- -- -- -- -- -- -- -- -- -- --
WDir VRB VRB VRB VRB VRB VRB VRB VRB VRB VRB VRB VRB 180 180
WSpd 0 4 4 4 4 4 4 4 4 4 4 4 6 6
WGst -- -- -- -- -- -- -- -- -- -- -- -- -- --

Raw TAF
KBWI 240534Z 2406/2512 VRB04KT P6SM SKC
  FM241900 18006KT P6SM SKC


Raw METAR
KBWI 240654Z 00000KT 10SM CLR M02/M04 A3005 RMK AO2 SLP178 T10221039
KBWI 240554Z 00000KT 10SM CLR M02/M04 A3006 RMK AO2 SLP181 T10221039 10006 21028 58004
KBWI 240454Z 26003KT 10SM CLR M02/M04 A3007 RMK AO2 SLP185 T10221044 400671028

METAR Board
Radar Display
Forecast Discussion

FOR SITUATIONAL AWARENESS. NOT TO BE USED FOR FLIGHT PLANNING PURPOSES.